createdAt,value
2023-05-14T00:01:47.824Z,99739.31
2023-05-14T00:04:32.578Z,99740.88
2023-05-14T00:07:17.459Z,99747.59
2023-05-14T00:10:02.164Z,99739.69
2023-05-14T00:12:47.241Z,99741.28
2023-05-14T00:15:34.192Z,99741.47
2023-05-14T00:18:19.716Z,99741.25
2023-05-14T00:21:04.644Z,99746.81
2023-05-14T00:23:48.907Z,99749.78
2023-05-14T00:26:33.458Z,99740.69
2023-05-14T00:29:18.021Z,99742.47
2023-05-14T00:32:03.118Z,99743.03
2023-05-14T00:34:47.699Z,99739.69
2023-05-14T00:37:32.859Z,99741.88
2023-05-14T00:40:17.655Z,99739.88
2023-05-14T00:43:03.091Z,99746.59
2023-05-14T00:45:53.087Z,99741.28
2023-05-14T00:48:37.891Z,99735.94
2023-05-14T00:51:23.287Z,99740.47
2023-05-14T00:54:08.363Z,99742.84
2023-05-14T00:56:54.097Z,99748.00
2023-05-14T00:59:41.142Z,99740.47
2023-05-14T01:02:25.937Z,99749.53
2023-05-14T01:05:10.413Z,99750.72
2023-05-14T01:08:07.010Z,99746.56
2023-05-14T01:10:59.889Z,99753.25
2023-05-14T01:14:07.743Z,99751.47
2023-05-14T01:16:57.179Z,99744.72
2023-05-14T01:19:46.795Z,99752.44
2023-05-14T01:22:31.759Z,99747.69
2023-05-14T01:25:16.602Z,99747.09
2023-05-14T01:28:28.338Z,99747.63
2023-05-14T01:31:19.045Z,99746.25
2023-05-14T01:34:06.075Z,99757.50
2023-05-14T01:36:52.760Z,99747.44
2023-05-14T01:39:38.986Z,99746.06
2023-05-14T01:42:25.304Z,99740.16
2023-05-14T01:45:10.380Z,99739.56
2023-05-14T01:47:55.480Z,99746.66
2023-05-14T01:50:40.748Z,99749.78
2023-05-14T01:53:25.705Z,99750.75
2023-05-14T01:56:10.894Z,99751.13
2023-05-14T01:58:56.199Z,99747.56
2023-05-14T02:01:41.405Z,99739.50
2023-05-14T02:04:26.378Z,99738.72
2023-05-14T02:07:11.185Z,99738.31
2023-05-14T02:09:55.618Z,99740.66
2023-05-14T02:12:40.283Z,99735.13
2023-05-14T02:15:24.811Z,99736.91
2023-05-14T02:18:09.859Z,99743.59
2023-05-14T02:20:55.170Z,99737.88
2023-05-14T02:23:41.961Z,99735.13
2023-05-14T02:26:27.389Z,99730.75
2023-05-14T02:29:13.029Z,99733.53
2023-05-14T02:31:57.900Z,99740.03
2023-05-14T02:34:42.492Z,99732.53
2023-05-14T02:37:26.932Z,99736.69
2023-05-14T02:40:11.735Z,99736.31
2023-05-14T02:42:56.537Z,99733.53
2023-05-14T02:45:41.021Z,99739.31
2023-05-14T02:48:25.908Z,99738.72
2023-05-14T02:51:11.023Z,99731.25
2023-05-14T02:53:55.590Z,99727.31
2023-05-14T02:56:40.203Z,99740.16
2023-05-14T02:59:24.693Z,99732.50
2023-05-14T03:02:09.904Z,99737.06
2023-05-14T03:04:55.397Z,99733.97
2023-05-14T03:07:39.747Z,99733.34
2023-05-14T03:10:24.522Z,99742.38
2023-05-14T03:13:09.054Z,99738.69
2023-05-14T03:15:54.268Z,99740.06
2023-05-14T03:18:39.106Z,99746.31
2023-05-14T03:21:24.284Z,99745.78
2023-05-14T03:24:08.797Z,99749.97
2023-05-14T03:26:53.840Z,99747.34
2023-05-14T03:29:38.484Z,99760.41
2023-05-14T03:32:22.944Z,99749.47
2023-05-14T03:35:08.263Z,99738.28
2023-05-14T03:37:52.913Z,99749.09
2023-05-14T03:40:38.081Z,99754.38
2023-05-14T03:43:22.724Z,99750.47
2023-05-14T03:46:08.189Z,99747.69
2023-05-14T03:48:52.914Z,99754.13
2023-05-14T03:51:37.903Z,99749.69
2023-05-14T03:54:23.496Z,99744.72
2023-05-14T03:57:08.252Z,99744.16
2023-05-14T03:59:52.866Z,99744.22
2023-05-14T04:02:37.509Z,99746.09
2023-05-14T04:05:22.375Z,99753.63
2023-05-14T04:08:07.281Z,99748.31
2023-05-14T04:10:52.059Z,99743.97
2023-05-14T04:13:36.578Z,99745.72
2023-05-14T04:16:21.439Z,99746.94
2023-05-14T04:19:06.783Z,99747.91
2023-05-14T04:21:51.525Z,99751.44
2023-05-14T04:24:36.260Z,99747.75
2023-05-14T04:27:21.668Z,99760.59
2023-05-14T04:30:07.749Z,99766.91
2023-05-14T04:32:52.899Z,99758.06
2023-05-14T04:35:37.671Z,99757.81
2023-05-14T04:38:22.626Z,99763.03
2023-05-14T04:41:07.387Z,99752.38
2023-05-14T04:43:55.408Z,99753.69
2023-05-14T04:46:40.297Z,99753.69
2023-05-14T04:49:25.344Z,99754.22
2023-05-14T04:52:10.166Z,99754.75
2023-05-14T04:54:56.201Z,99755.81
2023-05-14T04:57:41.248Z,99746.47
2023-05-14T05:00:26.418Z,99745.69
2023-05-14T05:03:12.199Z,99744.38
2023-05-14T05:05:56.853Z,99743.06
2023-05-14T05:08:41.762Z,99746.19
2023-05-14T05:11:26.561Z,99743.06
2023-05-14T05:14:11.078Z,99740.97
2023-05-14T05:16:56.057Z,99743.06
2023-05-14T05:19:44.238Z,99739.91
2023-05-14T05:22:29.231Z,99743.28
2023-05-14T05:25:13.834Z,99735.38
2023-05-14T05:27:58.744Z,99745.50
2023-05-14T05:30:44.575Z,99734.97
2023-05-14T05:33:29.378Z,99741.06
2023-05-14T05:36:14.443Z,99740.56
2023-05-14T05:38:59.205Z,99743.41
2023-05-14T05:41:43.871Z,99736.84
2023-05-14T05:44:28.324Z,99740.44
2023-05-14T05:47:12.795Z,99740.91
2023-05-14T05:49:57.163Z,99744.22
2023-05-14T05:52:41.801Z,99747.25
2023-05-14T05:55:28.069Z,99746.88
2023-05-14T05:58:15.106Z,99746.28
2023-05-14T06:01:00.585Z,99737.03
2023-05-14T06:03:46.450Z,99747.09
2023-05-14T06:06:33.094Z,99752.19
2023-05-14T06:09:18.049Z,99754.09
2023-05-14T06:12:03.166Z,99747.88
2023-05-14T06:14:48.138Z,99752.00
2023-05-14T06:17:33.142Z,99741.22
2023-05-14T06:20:18.630Z,99747.97
2023-05-14T06:23:03.127Z,99750.19
2023-05-14T06:25:50.762Z,99739.66
2023-05-14T06:28:35.730Z,99733.84
2023-05-14T06:31:20.880Z,99738.19
2023-05-14T06:34:05.781Z,99729.75
2023-05-14T06:36:50.255Z,99734.38
2023-05-14T06:39:38.710Z,99731.34
2023-05-14T06:42:23.455Z,99731.03
2023-05-14T06:45:08.467Z,99732.88
2023-05-14T06:47:53.367Z,99730.75
2023-05-14T06:50:38.005Z,99728.72
2023-05-14T06:53:22.620Z,99731.41
2023-05-14T06:56:07.596Z,99731.41
2023-05-14T06:58:52.108Z,99730.75
2023-05-14T07:01:36.905Z,99723.84
2023-05-14T07:04:21.401Z,99718.75
2023-05-14T07:07:06.431Z,99718.88
2023-05-14T07:09:51.275Z,99725.66
2023-05-14T07:12:36.003Z,99732.34
2023-05-14T07:15:20.899Z,99725.00
2023-05-14T07:18:05.926Z,99723.06
2023-05-14T07:20:50.341Z,99729.53
2023-05-14T07:23:36.447Z,99717.97
2023-05-14T07:26:23.697Z,99725.78
2023-05-14T07:29:08.518Z,99722.59
2023-05-14T07:31:52.849Z,99720.41
2023-05-14T07:34:37.309Z,99725.06
2023-05-14T07:37:23.656Z,99724.31
2023-05-14T07:40:08.974Z,99721.81
2023-05-14T07:42:53.583Z,99720.06
2023-05-14T07:45:40.953Z,99711.03
2023-05-14T07:48:25.733Z,99712.56
2023-05-14T07:51:11.152Z,99707.50
2023-05-14T07:53:55.623Z,99706.34
2023-05-14T07:56:40.640Z,99702.31
2023-05-14T07:59:25.487Z,99709.44
2023-05-14T08:02:12.204Z,99709.50
2023-05-14T08:04:56.740Z,99708.19
2023-05-14T08:07:40.886Z,99712.16
2023-05-14T08:10:25.921Z,99708.13
2023-05-14T08:13:10.967Z,99699.72
2023-05-14T08:15:55.858Z,99700.09
2023-05-14T08:18:40.779Z,99696.34
2023-05-14T08:21:25.713Z,99689.94
2023-05-14T08:24:10.717Z,99688.69
2023-05-14T08:26:55.581Z,99689.22
2023-05-14T08:29:40.858Z,99690.97
2023-05-14T08:32:25.779Z,99689.09
2023-05-14T08:35:10.853Z,99689.44
2023-05-14T08:37:56.524Z,99685.34
2023-05-14T08:40:41.792Z,99682.56
2023-05-14T08:43:43.873Z,99677.97
2023-05-14T08:46:30.407Z,99681.25
2023-05-14T08:49:28.061Z,99680.75
2023-05-14T08:52:12.959Z,99678.63
2023-05-14T08:55:00.827Z,99672.19
2023-05-14T08:57:45.933Z,99670.72
2023-05-14T09:00:30.758Z,99664.91
2023-05-14T09:03:17.722Z,99653.47
2023-05-14T09:06:04.192Z,99662.69
2023-05-14T09:08:49.178Z,99660.28
2023-05-14T09:11:34.003Z,99650.59
2023-05-14T09:14:19.770Z,99650.53
2023-05-14T09:17:04.717Z,99643.09
2023-05-14T09:19:52.307Z,99646.88
2023-05-14T09:22:38.184Z,99642.78
2023-05-14T09:25:27.273Z,99634.16
2023-05-14T09:28:12.150Z,99644.44
2023-05-14T09:30:57.095Z,99637.63
2023-05-14T09:33:41.604Z,99637.84
2023-05-14T09:36:26.686Z,99637.72
2023-05-14T09:39:11.710Z,99630.28
2023-05-14T09:41:56.360Z,99627.16
2023-05-14T09:44:41.444Z,99630.69
2023-05-14T09:47:26.347Z,99622.84
2023-05-14T09:50:11.115Z,99622.44
2023-05-14T09:52:55.568Z,99618.91
2023-05-14T09:55:41.049Z,99613.69
2023-05-14T09:58:26.007Z,99614.25
2023-05-14T10:01:11.306Z,99614.06
2023-05-14T10:03:56.628Z,99607.94
2023-05-14T10:06:43.280Z,99609.72
2023-05-14T10:09:29.212Z,99608.59
2023-05-14T10:12:19.610Z,99607.81
2023-05-14T10:15:13.148Z,99600.44
2023-05-14T10:18:01.110Z,99600.78
2023-05-14T10:21:13.753Z,99594.25
2023-05-14T10:23:59.697Z,99593.84
2023-05-14T10:26:44.861Z,99587.81
2023-05-14T10:29:37.667Z,99588.38
2023-05-14T10:32:25.104Z,99577.88
2023-05-14T10:35:19.615Z,99569.50
2023-05-14T10:38:08.211Z,99579.28
2023-05-14T10:41:09.319Z,99580.38
2023-05-14T10:43:56.918Z,99568.03
2023-05-14T10:46:41.842Z,99560.94
2023-05-14T10:49:42.400Z,99556.91
2023-05-14T10:52:28.981Z,99570.81
2023-05-14T10:55:15.780Z,99569.41
2023-05-14T10:58:03.895Z,99560.19
2023-05-14T11:00:53.720Z,99563.09
2023-05-14T11:03:43.122Z,99558.75
2023-05-14T11:06:28.925Z,99550.56
2023-05-14T11:09:16.991Z,99546.84
2023-05-14T11:12:01.832Z,99549.53
2023-05-14T11:14:46.924Z,99549.47
2023-05-14T11:17:32.033Z,99548.31
2023-05-14T11:20:17.973Z,99545.66
2023-05-14T11:23:02.868Z,99553.03
2023-05-14T11:25:47.588Z,99542.31
2023-05-14T11:28:32.169Z,99538.06
2023-05-14T11:31:17.006Z,99544.06
2023-05-14T11:34:03.572Z,99538.34
2023-05-14T11:36:48.713Z,99537.47
2023-05-14T11:39:35.264Z,99536.06
2023-05-14T11:42:21.681Z,99531.09
2023-05-14T11:45:10.550Z,99531.13
2023-05-14T11:47:55.509Z,99524.41
2023-05-14T11:50:44.813Z,99517.41
2023-05-14T11:53:30.265Z,99517.41
2023-05-14T11:56:15.336Z,99511.66
2023-05-14T11:59:00.153Z,99509.28
2023-05-14T12:01:46.184Z,99505.63
2023-05-14T12:04:31.265Z,99506.94
2023-05-14T12:07:16.143Z,99503.88
2023-05-14T12:10:02.704Z,99507.25
2023-05-14T12:12:48.312Z,99504.50
2023-05-14T12:15:32.897Z,99493.53
2023-05-14T12:18:24.205Z,99498.63
2023-05-14T12:21:11.367Z,99498.03
2023-05-14T12:24:00.249Z,99493.19
2023-05-14T12:26:50.069Z,99474.75
2023-05-14T12:29:37.339Z,99483.72
2023-05-14T12:32:25.244Z,99486.28
2023-05-14T12:35:10.230Z,99483.22
2023-05-14T12:37:55.031Z,99487.91
2023-05-14T12:40:40.114Z,99479.41
2023-05-14T12:43:29.320Z,99478.88
2023-05-14T12:46:14.066Z,99477.44
2023-05-14T12:48:59.486Z,99481.47
2023-05-14T12:51:43.957Z,99475.41
2023-05-14T12:54:28.532Z,99479.34
2023-05-14T12:57:13.470Z,99472.56
2023-05-14T12:59:58.331Z,99471.78
2023-05-14T13:02:43.964Z,99471.44
2023-05-14T13:05:29.034Z,99475.16
2023-05-14T13:08:17.224Z,99470.16
2023-05-14T13:11:01.868Z,99477.59
2023-05-14T13:13:46.361Z,99472.34
2023-05-14T13:16:30.969Z,99476.97
2023-05-14T13:19:16.031Z,99476.25
2023-05-14T13:22:00.704Z,99467.13
2023-05-14T13:24:45.749Z,99464.16
2023-05-14T13:27:30.255Z,99462.22
2023-05-14T13:30:16.836Z,99454.56
2023-05-14T13:33:01.948Z,99450.78
2023-05-14T13:35:46.625Z,99441.09
2023-05-14T13:38:31.143Z,99445.06
2023-05-14T13:41:15.946Z,99441.66
2023-05-14T13:44:00.427Z,99448.03
2023-05-14T13:46:45.082Z,99437.03
2023-05-14T13:49:29.998Z,99439.00
2023-05-14T13:52:14.441Z,99436.94
2023-05-14T13:54:58.959Z,99428.47
2023-05-14T13:57:43.580Z,99421.88
2023-05-14T14:00:28.356Z,99416.56
2023-05-14T14:03:12.808Z,99420.16
2023-05-14T14:05:57.448Z,99409.84
2023-05-14T14:08:42.556Z,99405.66
2023-05-14T14:11:27.508Z,99413.28
2023-05-14T14:14:12.559Z,99405.97
2023-05-14T14:16:57.280Z,99404.53
2023-05-14T14:19:41.934Z,99406.22
2023-05-14T14:22:28.248Z,99395.06
2023-05-14T14:25:13.741Z,99391.19
2023-05-14T14:27:58.494Z,99375.16
2023-05-14T14:30:43.256Z,99388.97
2023-05-14T14:33:28.108Z,99380.63
2023-05-14T14:36:12.906Z,99375.13
2023-05-14T14:38:57.831Z,99381.44
2023-05-14T14:41:43.727Z,99369.88
2023-05-14T14:44:28.698Z,99374.53
2023-05-14T14:47:13.300Z,99372.75
2023-05-14T14:49:57.781Z,99380.50
2023-05-14T14:52:45.478Z,99377.13
2023-05-14T14:55:30.850Z,99365.22
2023-05-14T14:58:16.041Z,99372.75
2023-05-14T15:01:01.290Z,99378.00
2023-05-14T15:03:47.679Z,99360.38
2023-05-14T15:06:32.788Z,99363.97
2023-05-14T15:09:17.224Z,99363.47
2023-05-14T15:12:02.583Z,99359.28
2023-05-14T15:14:47.323Z,99358.06
2023-05-14T15:17:31.886Z,99363.28
2023-05-14T15:20:16.715Z,99355.38
2023-05-14T15:23:01.943Z,99353.00
2023-05-14T15:25:46.510Z,99350.66
2023-05-14T15:28:31.294Z,99357.09
2023-05-14T15:31:15.919Z,99349.81
2023-05-14T15:34:01.134Z,99355.69
2023-05-14T15:36:46.040Z,99343.16
2023-05-14T15:39:30.869Z,99351.22
2023-05-14T15:42:15.679Z,99352.88
2023-05-14T15:45:00.523Z,99349.81
2023-05-14T15:47:45.470Z,99344.44
2023-05-14T15:50:30.171Z,99342.13
2023-05-14T15:53:15.296Z,99344.84
2023-05-14T15:56:00.250Z,99344.47
2023-05-14T15:58:44.767Z,99340.25
2023-05-14T16:01:29.788Z,99341.78
2023-05-14T16:04:14.159Z,99339.03
2023-05-14T16:07:03.628Z,99339.75
2023-05-14T16:09:48.263Z,99342.28
2023-05-14T16:12:33.728Z,99341.22
2023-05-14T16:15:18.356Z,99339.47
2023-05-14T16:18:03.393Z,99337.13
2023-05-14T16:20:48.142Z,99330.19
2023-05-14T16:23:32.738Z,99328.88
2023-05-14T16:26:17.218Z,99324.41
2023-05-14T16:29:02.141Z,99323.97
2023-05-14T16:31:46.679Z,99324.13
2023-05-14T16:34:31.802Z,99318.44
2023-05-14T16:37:19.138Z,99333.72
2023-05-14T16:40:04.354Z,99325.31
2023-05-14T16:42:49.404Z,99333.50
2023-05-14T16:45:36.604Z,99329.47
2023-05-14T16:48:23.139Z,99324.13
2023-05-14T16:51:09.055Z,99322.59
2023-05-14T16:53:55.500Z,99329.19
2023-05-14T16:56:41.435Z,99327.38
